Pays
Station

 

Conditions  météo  pour  Hartford, Hartford-Brainard Airport  -  Etats-Unis    Etats-Unis

  
22 °C
    
 
 

METAR pour Hartford, Hartford-Brainard Airport :

KHFD 180015Z 18004KT 1/2SM +RA FG SCT007 SCT013 OVC026 22/22 A2981 RMK AO2 RAB2356 P0035 T02220217

 

Voici le bulletin pour Hartford, Hartford-Brainard Airport - Etats-Unis.
 
Le bulletin a été fait il y a 19 minutes, à 00:15 UTC .
Le vent soufflait à la vitesse de 2.1 mètres par seconde de Sud (180°).
 
La température était de 22 °C, avec un point de rosée à 22 °C.
La température ressentie était de 18 °C.
 
La pression atmosphérique était de 1009 hPa.
L'humidité relative était de 100.0%.
 
Il y avait 3 à 4/8ème de nébulosité à une hauteur de 213 mètres et 3 à 4/8ème de nébulosité à une hauteur de 396 mètres. Le ciel était nuageux à partir d'une hauteur de 792 mètres
 
La visibilité globale était de 805 mètres.
 
Actuellement fort(e) pluie plus brouillard.

 
 
 

Pays :   A   B   C   D   E   F   G   H   I   J   K   L   M   N   O   P   Q   R   S   T   U   V   W   Y   Z

 

Partenaires :  Info Météo avec Met'info
Météo Marine avec MeteoMarine.net
Infos Site  |  Infos Légales  |  Crédits  |  Confidentialité
Contactez-nous  |  Ajouter aux favoris
© 2013-2018 METAR - Tous droits réservés